createdAt,value
2023-04-12T00:00:15.619Z,22.14
2023-04-12T00:01:15.659Z,22.15
2023-04-12T00:02:15.734Z,22.15
2023-04-12T00:03:15.824Z,22.15
2023-04-12T00:04:15.819Z,22.14
2023-04-12T00:05:15.738Z,22.14
2023-04-12T00:06:15.680Z,22.14
2023-04-12T00:07:15.676Z,22.14
2023-04-12T00:08:15.734Z,22.15
2023-04-12T00:09:15.693Z,22.14
2023-04-12T00:10:15.731Z,22.14
2023-04-12T00:11:15.754Z,22.14
2023-04-12T00:12:15.754Z,22.15
2023-04-12T00:13:15.753Z,22.14
2023-04-12T00:14:15.746Z,22.15
2023-04-12T00:15:15.775Z,22.14
2023-04-12T00:16:15.874Z,22.14
2023-04-12T00:17:15.792Z,22.15
2023-04-12T00:18:15.780Z,22.14
2023-04-12T00:19:15.800Z,22.14
2023-04-12T00:20:15.820Z,22.14
2023-04-12T00:21:15.820Z,22.13
2023-04-12T00:22:15.806Z,22.14
2023-04-12T00:23:15.837Z,22.13
2023-04-12T00:24:15.851Z,22.13
2023-04-12T00:25:15.879Z,22.14
2023-04-12T00:26:15.886Z,22.14
2023-04-12T00:27:15.901Z,22.14
2023-04-12T00:28:16.031Z,22.14
2023-04-12T00:29:15.888Z,22.13
2023-04-12T00:30:15.921Z,22.14
2023-04-12T00:31:15.978Z,22.13
2023-04-12T00:32:15.914Z,22.13
2023-04-12T00:33:15.938Z,22.13
2023-04-12T00:34:15.980Z,22.13
2023-04-12T00:35:15.978Z,22.13
2023-04-12T00:36:16.125Z,22.13
2023-04-12T00:37:15.982Z,22.13
2023-04-12T00:38:16.019Z,22.13
2023-04-12T00:39:16.043Z,22.13
2023-04-12T00:40:16.002Z,22.13
2023-04-12T00:41:16.024Z,22.13
2023-04-12T00:42:16.067Z,22.13
2023-04-12T00:43:16.057Z,22.13
2023-04-12T00:44:16.079Z,22.12
2023-04-12T00:45:16.093Z,22.12
2023-04-12T00:46:16.153Z,22.13
2023-04-12T00:47:16.120Z,22.12
2023-04-12T00:48:16.152Z,22.12
2023-04-12T00:49:16.147Z,22.13
2023-04-12T00:50:16.154Z,22.12
2023-04-12T00:51:16.165Z,22.12
2023-04-12T00:52:16.192Z,22.12
2023-04-12T00:53:16.199Z,22.12
2023-04-12T00:54:16.211Z,22.12
2023-04-12T00:55:16.222Z,22.12
2023-04-12T00:56:16.214Z,22.13
2023-04-12T00:57:16.238Z,22.12
2023-04-12T00:58:16.245Z,22.12
2023-04-12T00:59:16.287Z,22.12
2023-04-12T01:00:16.235Z,22.12
2023-04-12T01:01:16.347Z,22.12
2023-04-12T01:02:16.430Z,22.12
2023-04-12T01:03:16.556Z,22.12
2023-04-12T01:04:16.328Z,22.12
2023-04-12T01:05:16.341Z,22.12
2023-04-12T01:06:16.329Z,22.12
2023-04-12T01:07:16.376Z,22.12
2023-04-12T01:08:16.404Z,22.11
2023-04-12T01:09:16.384Z,22.12
2023-04-12T01:10:16.375Z,22.11
2023-04-12T01:11:16.410Z,22.12
2023-04-12T01:12:16.411Z,22.12
2023-04-12T01:13:16.425Z,22.11
2023-04-12T01:14:16.436Z,22.11
2023-04-12T01:15:16.534Z,22.11
2023-04-12T01:16:16.557Z,22.11
2023-04-12T01:17:16.495Z,22.12
2023-04-12T01:18:16.497Z,22.11
2023-04-12T01:19:16.508Z,22.11
2023-04-12T01:20:16.526Z,22.11
2023-04-12T01:21:16.578Z,22.11
2023-04-12T01:22:16.525Z,22.10
2023-04-12T01:23:16.571Z,22.10
2023-04-12T01:24:16.575Z,22.10
2023-04-12T01:25:16.571Z,22.12
2023-04-12T01:26:16.631Z,22.11
2023-04-12T01:27:16.603Z,22.11
2023-04-12T01:28:16.627Z,22.11
2023-04-12T01:29:16.652Z,22.10
2023-04-12T01:30:16.638Z,22.11
2023-04-12T01:31:16.692Z,22.10
2023-04-12T01:32:16.668Z,22.10
2023-04-12T01:33:16.696Z,22.10
2023-04-12T01:34:16.677Z,22.10
2023-04-12T01:35:16.719Z,22.10
2023-04-12T01:36:16.748Z,22.09
2023-04-12T01:37:16.753Z,22.09
2023-04-12T01:38:16.742Z,22.09
2023-04-12T01:39:16.742Z,22.10
2023-04-12T01:40:16.757Z,22.09
2023-04-12T01:41:16.802Z,22.10
2023-04-12T01:42:16.766Z,22.09
2023-04-12T01:43:16.855Z,22.09
2023-04-12T01:44:16.789Z,22.09
2023-04-12T01:45:16.805Z,22.09
2023-04-12T01:46:16.926Z,22.08
2023-04-12T01:47:16.865Z,22.08
2023-04-12T01:48:16.859Z,22.08
2023-04-12T01:49:16.882Z,22.07
2023-04-12T01:50:16.894Z,22.08
2023-04-12T01:51:16.900Z,22.08
2023-04-12T01:52:16.896Z,22.08
2023-04-12T01:53:16.899Z,22.08
2023-04-12T01:54:16.924Z,22.08
2023-04-12T01:55:16.957Z,22.08
2023-04-12T01:56:16.931Z,22.06
2023-04-12T01:57:16.933Z,22.07
2023-04-12T01:58:16.995Z,22.07
2023-04-12T01:59:17.007Z,22.08
2023-04-12T02:00:17.021Z,22.07
2023-04-12T02:01:17.062Z,22.07
2023-04-12T02:02:17.253Z,22.08
2023-04-12T02:03:17.212Z,22.08
2023-04-12T02:04:17.127Z,22.06
2023-04-12T02:05:17.112Z,22.07
2023-04-12T02:06:17.119Z,22.07
2023-04-12T02:07:17.115Z,22.06
2023-04-12T02:08:17.194Z,22.07
2023-04-12T02:09:17.156Z,22.07
2023-04-12T02:10:17.190Z,22.07
2023-04-12T02:11:17.200Z,22.07
2023-04-12T02:12:17.233Z,22.07
2023-04-12T02:13:17.236Z,22.07
2023-04-12T02:14:17.268Z,22.07
2023-04-12T02:15:17.255Z,22.07
2023-04-12T02:16:17.291Z,22.07
2023-04-12T02:17:17.289Z,22.06
2023-04-12T02:18:17.319Z,22.07
2023-04-12T02:19:17.328Z,22.07
2023-04-12T02:20:17.390Z,22.07
2023-04-12T02:21:17.401Z,22.07
2023-04-12T02:22:17.403Z,22.07
2023-04-12T02:23:17.414Z,22.07
2023-04-12T02:24:17.452Z,22.07
2023-04-12T02:25:17.462Z,22.07
2023-04-12T02:26:17.480Z,22.06
2023-04-12T02:27:17.498Z,22.07
2023-04-12T02:28:17.547Z,22.06
2023-04-12T02:29:17.577Z,22.06
2023-04-12T02:30:17.602Z,22.06
2023-04-12T02:31:17.698Z,22.07
2023-04-12T02:32:17.611Z,22.06
2023-04-12T02:33:17.632Z,22.07
2023-04-12T02:34:17.653Z,22.05
2023-04-12T02:35:17.736Z,22.07
2023-04-12T02:36:17.728Z,22.06
2023-04-12T02:37:17.846Z,22.06
2023-04-12T02:38:17.740Z,22.07
2023-04-12T02:39:17.757Z,22.05
2023-04-12T02:40:17.757Z,22.05
2023-04-12T02:41:17.792Z,22.06
2023-04-12T02:42:17.780Z,22.04
2023-04-12T02:43:17.807Z,22.04
2023-04-12T02:44:17.869Z,22.04
2023-04-12T02:45:17.811Z,22.04
2023-04-12T02:46:17.860Z,22.04
2023-04-12T02:47:17.879Z,22.04
2023-04-12T02:48:17.878Z,22.05
2023-04-12T02:49:17.925Z,22.04
2023-04-12T02:50:17.934Z,22.04
2023-04-12T02:51:18.003Z,22.04
2023-04-12T02:52:18.019Z,22.04
2023-04-12T02:53:18.044Z,22.04
2023-04-12T02:54:18.004Z,22.04
2023-04-12T02:55:18.074Z,22.03
2023-04-12T02:56:18.086Z,22.04
2023-04-12T02:57:18.122Z,22.04
2023-04-12T02:58:18.176Z,22.04
2023-04-12T02:59:18.131Z,22.04
2023-04-12T03:00:18.164Z,22.04
2023-04-12T03:01:18.223Z,22.03
2023-04-12T03:02:18.271Z,22.03
2023-04-12T03:03:18.372Z,22.04
2023-04-12T03:04:18.351Z,22.04
2023-04-12T03:05:19.014Z,22.04
2023-04-12T03:06:18.308Z,22.03
2023-04-12T03:07:18.306Z,22.04
2023-04-12T03:08:18.362Z,22.04
2023-04-12T03:09:18.395Z,22.03
2023-04-12T03:10:18.414Z,22.03
2023-04-12T03:11:18.430Z,22.03
2023-04-12T03:12:18.440Z,22.03
2023-04-12T03:13:18.490Z,22.03
2023-04-12T03:14:18.498Z,22.03
2023-04-12T03:15:18.519Z,22.03
2023-04-12T03:16:18.535Z,22.03
2023-04-12T03:17:18.540Z,22.03
2023-04-12T03:18:18.560Z,22.03
2023-04-12T03:19:18.562Z,22.03
2023-04-12T03:20:18.595Z,22.03
2023-04-12T03:21:18.609Z,22.03
2023-04-12T03:22:18.658Z,22.03
2023-04-12T03:23:18.658Z,22.03
2023-04-12T03:24:18.689Z,22.03
2023-04-12T03:25:18.737Z,22.03
2023-04-12T03:26:18.710Z,22.04
2023-04-12T03:27:18.721Z,22.03
2023-04-12T03:28:18.716Z,22.03
2023-04-12T03:29:18.769Z,22.03
2023-04-12T03:30:18.768Z,22.03
2023-04-12T03:31:18.788Z,22.03
2023-04-12T03:32:18.813Z,22.03
2023-04-12T03:33:18.800Z,22.03
2023-04-12T03:34:18.804Z,22.02
2023-04-12T03:35:18.869Z,22.03
2023-04-12T03:36:18.901Z,22.03
2023-04-12T03:37:18.919Z,22.02
2023-04-12T03:38:18.914Z,22.03
2023-04-12T03:39:18.907Z,22.03
2023-04-12T03:40:18.950Z,22.03
2023-04-12T03:41:18.973Z,22.02
2023-04-12T03:42:32.378Z,22.03
2023-04-12T03:43:19.948Z,22.02
2023-04-12T03:44:18.934Z,22.02
2023-04-12T03:45:18.935Z,22.03
2023-04-12T03:46:19.026Z,22.02
2023-04-12T03:47:18.947Z,22.03
2023-04-12T03:48:18.916Z,22.02
2023-04-12T03:49:18.902Z,22.02
2023-04-12T03:50:18.882Z,22.02
2023-04-12T03:51:18.909Z,22.02
2023-04-12T03:52:18.866Z,22.02
2023-04-12T03:53:18.892Z,22.02
2023-04-12T03:54:18.890Z,22.02
2023-04-12T03:55:18.880Z,22.02
2023-04-12T03:56:18.885Z,22.02
2023-04-12T03:57:18.891Z,22.01
2023-04-12T03:58:18.868Z,22.02
2023-04-12T03:59:18.854Z,22.02
2023-04-12T04:00:18.831Z,22.02
2023-04-12T04:01:18.876Z,22.02
2023-04-12T04:02:18.986Z,22.02
2023-04-12T04:03:18.910Z,22.02
2023-04-12T04:04:18.979Z,22.02
2023-04-12T04:05:18.918Z,22.02
2023-04-12T04:06:18.842Z,22.02
2023-04-12T04:07:18.807Z,22.02
2023-04-12T04:08:18.806Z,22.02
2023-04-12T04:09:18.817Z,22.02
2023-04-12T04:10:18.822Z,22.02
2023-04-12T04:11:18.874Z,22.02
2023-04-12T04:12:18.892Z,22.03
2023-04-12T04:13:18.914Z,22.03
2023-04-12T04:14:18.919Z,22.02
2023-04-12T04:15:18.971Z,22.02
2023-04-12T04:16:19.052Z,22.02
2023-04-12T04:17:19.152Z,22.02
2023-04-12T04:18:19.033Z,22.02
2023-04-12T04:19:19.080Z,22.02
2023-04-12T04:20:19.052Z,22.02
2023-04-12T04:21:19.087Z,22.02
2023-04-12T04:22:19.155Z,22.02
2023-04-12T04:23:19.154Z,22.02
2023-04-12T04:24:19.190Z,22.02
2023-04-12T04:25:19.194Z,22.02
2023-04-12T04:26:19.196Z,22.02
2023-04-12T04:27:19.234Z,22.02
2023-04-12T04:28:19.261Z,22.02
2023-04-12T04:29:19.264Z,22.02
2023-04-12T04:30:19.308Z,22.02
2023-04-12T04:31:19.352Z,22.02
2023-04-12T04:32:19.331Z,22.01
2023-04-12T04:33:19.377Z,22.01
2023-04-12T04:34:19.416Z,22.02
2023-04-12T04:35:19.376Z,22.01
2023-04-12T04:36:19.424Z,22.02
2023-04-12T04:37:19.425Z,22.02
2023-04-12T04:38:19.446Z,22.02
2023-04-12T04:39:19.458Z,22.02
2023-04-12T04:40:19.497Z,22.02
2023-04-12T04:41:19.512Z,22.01
2023-04-12T04:42:19.561Z,22.01
2023-04-12T04:43:19.566Z,22.02
2023-04-12T04:44:19.561Z,22.02
2023-04-12T04:45:19.604Z,22.01
2023-04-12T04:46:19.702Z,22.03
2023-04-12T04:47:19.644Z,22.02
2023-04-12T04:48:19.647Z,22.02
2023-04-12T04:49:19.677Z,22.03
2023-04-12T04:50:19.713Z,22.03
2023-04-12T04:51:19.760Z,22.03
2023-04-12T04:52:19.776Z,22.03
2023-04-12T04:53:19.769Z,22.03
2023-04-12T04:54:19.808Z,22.03
2023-04-12T04:55:19.838Z,22.03
2023-04-12T04:56:19.837Z,22.05
2023-04-12T04:57:20.110Z,22.06
2023-04-12T04:58:19.886Z,22.06
2023-04-12T04:59:19.918Z,22.07
2023-04-12T05:00:19.927Z,22.08
2023-04-12T05:01:19.976Z,22.08
2023-04-12T05:02:20.061Z,22.09
2023-04-12T05:03:20.071Z,22.09
2023-04-12T05:04:20.006Z,22.09
2023-04-12T05:05:20.095Z,22.10
2023-04-12T05:06:20.013Z,22.09
2023-04-12T05:07:20.020Z,22.11
2023-04-12T05:08:20.038Z,22.11
2023-04-12T05:09:20.037Z,22.11
2023-04-12T05:10:20.081Z,22.12
2023-04-12T05:11:20.056Z,22.12
2023-04-12T05:12:20.123Z,22.11
2023-04-12T05:13:20.095Z,22.12
2023-04-12T05:14:20.448Z,22.12
2023-04-12T05:15:20.085Z,22.13
2023-04-12T05:16:20.173Z,22.13
2023-04-12T05:17:20.213Z,22.13
2023-04-12T05:18:20.139Z,22.13
2023-04-12T05:19:20.157Z,22.13
2023-04-12T05:20:20.179Z,22.14
2023-04-12T05:21:20.192Z,22.14
2023-04-12T05:22:20.198Z,22.14
2023-04-12T05:23:20.204Z,22.14
2023-04-12T05:24:20.224Z,22.14
2023-04-12T05:25:20.255Z,22.14
2023-04-12T05:26:20.242Z,22.15
2023-04-12T05:27:20.241Z,22.16
2023-04-12T05:28:20.291Z,22.16
2023-04-12T05:29:20.307Z,22.16
2023-04-12T05:30:20.298Z,22.16
2023-04-12T05:31:20.732Z,22.16
2023-04-12T05:32:20.419Z,22.17
2023-04-12T05:33:20.333Z,22.16
2023-04-12T05:34:20.357Z,22.17
2023-04-12T05:35:20.445Z,22.17
2023-04-12T05:36:20.372Z,22.16
2023-04-12T05:37:20.385Z,22.14
2023-04-12T05:38:20.472Z,22.15
2023-04-12T05:39:20.858Z,22.16
2023-04-12T05:40:20.398Z,22.17
2023-04-12T05:41:20.406Z,22.18
2023-04-12T05:42:20.634Z,22.20
2023-04-12T05:43:20.467Z,22.22
2023-04-12T05:44:20.497Z,22.24
2023-04-12T05:45:20.447Z,22.27
2023-04-12T05:46:20.523Z,22.29
2023-04-12T05:47:20.498Z,22.32
2023-04-12T05:48:20.479Z,22.35
2023-04-12T05:49:20.465Z,22.39
2023-04-12T05:50:20.462Z,22.43
2023-04-12T05:51:30.685Z,22.47
2023-04-12T05:52:21.450Z,22.52
2023-04-12T05:53:20.425Z,22.56
2023-04-12T05:54:20.455Z,22.60
2023-04-12T05:55:20.420Z,22.66
2023-04-12T05:56:20.403Z,22.72
2023-04-12T05:57:20.612Z,22.75
2023-04-12T05:58:20.422Z,22.79
2023-04-12T05:59:20.397Z,22.82
2023-04-12T06:00:20.500Z,22.86
2023-04-12T06:01:20.526Z,22.90
2023-04-12T06:02:20.663Z,22.92
2023-04-12T06:03:20.699Z,22.95
2023-04-12T06:04:20.841Z,23.00
2023-04-12T06:05:20.765Z,23.02
2023-04-12T06:06:20.748Z,23.07
2023-04-12T06:07:21.115Z,23.09
2023-04-12T06:08:20.841Z,23.12
2023-04-12T06:09:20.865Z,23.15
2023-04-12T06:10:20.876Z,23.18
2023-04-12T06:11:20.933Z,23.21
2023-04-12T06:12:20.932Z,23.22
2023-04-12T06:13:20.982Z,23.23
2023-04-12T06:14:20.995Z,23.25
2023-04-12T06:15:21.110Z,23.26
2023-04-12T06:16:21.148Z,23.28
2023-04-12T06:17:21.042Z,23.29
2023-04-12T06:18:21.053Z,23.30
2023-04-12T06:19:21.067Z,23.32
2023-04-12T06:20:21.039Z,23.33
2023-04-12T06:21:21.060Z,23.35
2023-04-12T06:22:21.074Z,23.37
2023-04-12T06:23:21.058Z,23.38
2023-04-12T06:24:21.048Z,23.39
2023-04-12T06:25:21.070Z,23.42
2023-04-12T06:26:21.057Z,23.43
2023-04-12T06:27:21.069Z,23.45
2023-04-12T06:28:21.083Z,23.47
2023-04-12T06:29:21.097Z,23.49
2023-04-12T06:30:21.121Z,23.51
2023-04-12T06:31:21.213Z,23.53
2023-04-12T06:32:21.200Z,23.55
2023-04-12T06:33:21.226Z,23.56
2023-04-12T06:34:21.273Z,23.58
2023-04-12T06:35:21.320Z,23.61
2023-04-12T06:36:21.339Z,23.62
2023-04-12T06:37:21.398Z,23.65
2023-04-12T06:38:21.489Z,23.67
2023-04-12T06:39:21.494Z,23.69
2023-04-12T06:40:21.524Z,23.71
2023-04-12T06:41:21.630Z,23.72
2023-04-12T06:42:21.707Z,23.74
2023-04-12T06:43:21.737Z,23.77
2023-04-12T06:44:21.800Z,23.78
2023-04-12T06:45:21.888Z,23.80
2023-04-12T06:46:21.938Z,23.82
2023-04-12T06:47:22.318Z,23.84
2023-04-12T06:48:21.993Z,23.85
2023-04-12T06:49:22.082Z,23.85
2023-04-12T06:50:22.198Z,23.86
2023-04-12T06:51:22.209Z,23.87
2023-04-12T06:52:22.646Z,23.87
2023-04-12T06:53:22.308Z,23.89
2023-04-12T06:54:22.419Z,23.90
2023-04-12T06:55:22.392Z,23.89
2023-04-12T06:56:22.473Z,23.48
2023-04-12T06:57:22.483Z,22.69
2023-04-12T06:58:22.531Z,22.26
2023-04-12T06:59:22.527Z,21.74
2023-04-12T07:00:22.550Z,21.32
2023-04-12T07:01:22.664Z,21.12
2023-04-12T07:02:22.792Z,20.93
2023-04-12T07:03:22.719Z,20.76
2023-04-12T07:04:22.710Z,20.75
2023-04-12T07:05:22.652Z,20.86
2023-04-12T07:06:26.087Z,20.99
2023-04-12T07:07:22.671Z,21.13
2023-04-12T07:08:22.655Z,21.27
2023-04-12T07:09:22.633Z,21.43
2023-04-12T07:10:22.658Z,21.58
2023-04-12T07:11:23.231Z,21.73
2023-04-12T07:12:22.598Z,21.89
2023-04-12T07:13:23.137Z,22.06
2023-04-12T07:14:22.604Z,22.19
2023-04-12T07:15:22.613Z,22.32
2023-04-12T07:16:22.657Z,22.45
2023-04-12T07:17:22.672Z,22.57
2023-04-12T07:18:22.685Z,22.68
2023-04-12T07:19:22.575Z,22.79
2023-04-12T07:20:22.558Z,22.88
2023-04-12T07:21:22.546Z,22.96
2023-04-12T07:22:22.836Z,23.04
2023-04-12T07:23:22.581Z,23.11
2023-04-12T07:24:22.556Z,23.18
2023-04-12T07:25:22.616Z,23.25
2023-04-12T07:26:22.585Z,23.30
2023-04-12T07:27:22.567Z,23.37
2023-04-12T07:28:22.590Z,23.41
2023-04-12T07:29:22.508Z,23.46
2023-04-12T07:30:22.482Z,23.49
2023-04-12T07:31:22.501Z,23.53
2023-04-12T07:32:22.558Z,23.57
2023-04-12T07:33:22.725Z,23.61
2023-04-12T07:34:22.653Z,23.64
2023-04-12T07:35:22.512Z,23.68
2023-04-12T07:36:22.511Z,23.71
2023-04-12T07:37:22.464Z,23.73
2023-04-12T07:38:22.456Z,23.75
2023-04-12T07:39:22.513Z,23.77
2023-04-12T07:40:22.443Z,23.77
2023-04-12T07:41:22.486Z,23.77
2023-04-12T07:42:22.736Z,23.79
2023-04-12T07:43:22.419Z,23.81
2023-04-12T07:44:22.437Z,23.82
2023-04-12T07:45:22.430Z,23.84
2023-04-12T07:46:22.532Z,23.83
2023-04-12T07:47:22.670Z,23.85
2023-04-12T07:48:22.503Z,23.85
2023-04-12T07:49:22.558Z,23.86
2023-04-12T07:50:22.621Z,23.87
2023-04-12T07:51:22.717Z,23.88
2023-04-12T07:52:22.860Z,23.88
2023-04-12T07:53:22.889Z,23.87
2023-04-12T07:54:23.572Z,23.90
2023-04-12T07:55:22.940Z,23.92
2023-04-12T07:56:23.001Z,23.94
2023-04-12T07:57:23.016Z,23.97
2023-04-12T07:58:23.105Z,23.98
2023-04-12T07:59:23.147Z,23.99
2023-04-12T08:00:23.166Z,23.99
2023-04-12T08:01:23.215Z,24.01
2023-04-12T08:02:23.372Z,24.03
2023-04-12T08:03:23.388Z,24.03
2023-04-12T08:04:23.515Z,24.04
2023-04-12T08:05:23.402Z,24.04
2023-04-12T08:06:23.412Z,24.05
2023-04-12T08:07:23.511Z,24.06
2023-04-12T08:08:23.538Z,24.07
2023-04-12T08:09:23.577Z,24.09
2023-04-12T08:10:23.645Z,24.11
2023-04-12T08:11:23.665Z,24.12
2023-04-12T08:12:23.690Z,24.14
2023-04-12T08:13:23.761Z,24.15
2023-04-12T08:14:23.831Z,24.17
2023-04-12T08:15:23.859Z,24.18
2023-04-12T08:16:23.934Z,24.19
2023-04-12T08:17:23.972Z,24.20
2023-04-12T08:18:23.998Z,24.21
2023-04-12T08:19:24.010Z,24.21
2023-04-12T08:20:24.042Z,24.21
2023-04-12T08:21:24.077Z,24.22
2023-04-12T08:22:24.161Z,24.22
2023-04-12T08:23:24.156Z,24.21
2023-04-12T08:24:24.270Z,24.22
2023-04-12T08:25:24.289Z,24.23
2023-04-12T08:26:24.340Z,24.23
2023-04-12T08:27:24.346Z,24.24
2023-04-12T08:28:24.361Z,24.26
2023-04-12T08:29:24.425Z,24.28
2023-04-12T08:30:24.544Z,24.29
2023-04-12T08:31:24.555Z,24.31
2023-04-12T08:32:24.612Z,24.31
2023-04-12T08:33:24.613Z,24.31
2023-04-12T08:34:24.644Z,24.32
2023-04-12T08:35:24.654Z,24.33
2023-04-12T08:36:24.753Z,24.34
2023-04-12T08:37:25.140Z,24.35
2023-04-12T08:38:37.255Z,24.34
2023-04-12T08:39:25.810Z,24.34
2023-04-12T08:40:24.756Z,24.35
2023-04-12T08:41:24.759Z,24.34
2023-04-12T08:42:24.748Z,24.34
2023-04-12T08:43:24.692Z,24.35
2023-04-12T08:44:24.697Z,24.31
2023-04-12T08:45:24.690Z,23.88
2023-04-12T08:46:24.731Z,23.44
2023-04-12T08:47:24.735Z,23.33
2023-04-12T08:48:24.699Z,23.26
2023-04-12T08:49:24.674Z,23.29
2023-04-12T08:50:24.676Z,23.31
2023-04-12T08:51:24.771Z,22.89
2023-04-12T08:52:24.739Z,22.79
2023-04-12T08:53:24.779Z,22.32
2023-04-12T08:54:24.823Z,21.73
2023-04-12T08:55:24.848Z,21.38
2023-04-12T08:56:24.830Z,21.28
2023-04-12T08:57:24.890Z,21.31
2023-04-12T08:58:25.171Z,21.43
2023-04-12T08:59:25.003Z,21.55
2023-04-12T09:00:25.051Z,21.69
2023-04-12T09:01:25.090Z,21.82
2023-04-12T09:02:25.333Z,21.96
2023-04-12T09:03:25.303Z,22.11
2023-04-12T09:04:25.217Z,22.27
2023-04-12T09:05:25.269Z,22.41
2023-04-12T09:06:26.191Z,22.57
2023-04-12T09:07:25.257Z,22.73
2023-04-12T09:08:25.313Z,22.87
2023-04-12T09:09:25.335Z,22.99
2023-04-12T09:10:25.357Z,23.09
2023-04-12T09:11:25.384Z,23.19
2023-04-12T09:12:25.372Z,23.28
2023-04-12T09:13:25.400Z,23.35
2023-04-12T09:14:25.379Z,23.42
2023-04-12T09:15:25.395Z,23.49
2023-04-12T09:16:25.445Z,23.54
2023-04-12T09:17:25.510Z,23.59
2023-04-12T09:18:25.539Z,23.63
2023-04-12T09:19:25.600Z,23.67
2023-04-12T09:20:25.663Z,23.72
2023-04-12T09:21:25.690Z,23.76
2023-04-12T09:22:25.787Z,23.79
2023-04-12T09:23:25.833Z,23.83
2023-04-12T09:24:25.864Z,23.86
2023-04-12T09:25:25.908Z,23.88
2023-04-12T09:26:25.945Z,23.90
2023-04-12T09:27:26.034Z,23.93
2023-04-12T09:28:26.321Z,23.94
2023-04-12T09:29:26.132Z,23.96
2023-04-12T09:30:26.125Z,23.98
2023-04-12T09:31:26.201Z,24.01
2023-04-12T09:32:26.256Z,24.02
2023-04-12T09:33:26.297Z,24.04
2023-04-12T09:34:27.929Z,24.05
2023-04-12T09:35:26.353Z,24.08
2023-04-12T09:36:26.420Z,24.10
2023-04-12T09:37:26.443Z,24.11
2023-04-12T09:38:26.488Z,24.13
2023-04-12T09:39:26.536Z,24.14
2023-04-12T09:40:26.614Z,24.15
2023-04-12T09:41:27.374Z,24.16
2023-04-12T09:42:33.887Z,24.18
2023-04-12T09:43:27.673Z,24.19
2023-04-12T09:44:26.666Z,24.20
2023-04-12T09:45:26.671Z,24.20
2023-04-12T09:46:26.671Z,24.21
2023-04-12T09:47:26.631Z,24.22
2023-04-12T09:48:26.606Z,24.10
2023-04-12T09:49:26.585Z,23.89
2023-04-12T09:50:26.748Z,23.72
2023-04-12T09:51:26.577Z,23.57
2023-04-12T09:52:26.565Z,23.41
2023-04-12T09:53:26.626Z,23.25
2023-04-12T09:54:26.581Z,23.13
2023-04-12T09:55:26.561Z,23.01
2023-04-12T09:56:26.612Z,22.93
2023-04-12T09:57:26.561Z,22.84
2023-04-12T09:58:26.647Z,22.77
2023-04-12T09:59:26.657Z,22.71
2023-04-12T10:00:26.941Z,22.65
2023-04-12T10:01:26.856Z,22.60
2023-04-12T10:02:27.059Z,22.56
2023-04-12T10:03:27.050Z,22.52
2023-04-12T10:04:26.989Z,22.49
2023-04-12T10:05:27.969Z,22.44
2023-04-12T10:06:26.980Z,22.41
2023-04-12T10:07:26.954Z,22.37
2023-04-12T10:08:26.982Z,22.36
2023-04-12T10:09:26.943Z,22.33
2023-04-12T10:10:26.935Z,22.31
2023-04-12T10:11:26.959Z,22.28
2023-04-12T10:12:26.968Z,22.25
2023-04-12T10:13:26.993Z,22.24
2023-04-12T10:14:26.961Z,22.22
2023-04-12T10:15:27.007Z,22.22
2023-04-12T10:16:27.198Z,22.21
2023-04-12T10:17:26.972Z,22.17
2023-04-12T10:18:26.999Z,22.14
2023-04-12T10:19:26.999Z,22.10
2023-04-12T10:20:29.313Z,22.04
2023-04-12T10:21:26.993Z,22.01
2023-04-12T10:22:26.986Z,22.01
2023-04-12T10:23:26.946Z,22.01
2023-04-12T10:24:26.944Z,22.00
2023-04-12T10:25:26.957Z,21.97
2023-04-12T10:26:26.935Z,21.96
2023-04-12T10:27:26.963Z,21.93
2023-04-12T10:28:26.922Z,21.90
2023-04-12T10:29:26.959Z,21.90
2023-04-12T10:30:26.929Z,21.90
2023-04-12T10:31:26.941Z,21.89
2023-04-12T10:32:26.973Z,21.86
2023-04-12T10:33:26.966Z,21.83
2023-04-12T10:34:26.887Z,21.80
2023-04-12T10:35:26.911Z,21.79
2023-04-12T10:36:26.925Z,21.76
2023-04-12T10:37:26.878Z,21.71
2023-04-12T10:38:26.942Z,21.72
2023-04-12T10:39:26.877Z,21.78
2023-04-12T10:40:26.884Z,21.82
2023-04-12T10:41:26.848Z,21.88
2023-04-12T10:42:26.847Z,21.94
2023-04-12T10:43:26.829Z,22.00
2023-04-12T10:44:26.795Z,22.07
2023-04-12T10:45:26.822Z,22.13
2023-04-12T10:46:26.852Z,22.19
2023-04-12T10:47:26.866Z,22.25
2023-04-12T10:48:26.874Z,22.30
2023-04-12T10:49:26.826Z,22.36
2023-04-12T10:50:26.797Z,22.41
2023-04-12T10:51:26.822Z,22.46
2023-04-12T10:52:26.774Z,22.51
2023-04-12T10:53:26.775Z,22.55
2023-04-12T10:54:26.771Z,22.59
2023-04-12T10:55:26.766Z,22.63
2023-04-12T10:56:26.742Z,22.66
2023-04-12T10:57:26.727Z,22.70
2023-04-12T10:58:26.748Z,22.72
2023-04-12T10:59:34.371Z,22.75
2023-04-12T11:00:27.748Z,22.77
2023-04-12T11:01:26.784Z,22.79
2023-04-12T11:02:26.842Z,22.82
2023-04-12T11:03:26.849Z,22.83
2023-04-12T11:04:26.783Z,22.84
2023-04-12T11:05:26.704Z,22.86
2023-04-12T11:06:27.832Z,22.87
2023-04-12T11:07:26.664Z,22.89
2023-04-12T11:08:26.668Z,22.90
2023-04-12T11:09:26.685Z,22.92
2023-04-12T11:10:26.686Z,22.93
2023-04-12T11:11:26.680Z,22.94
2023-04-12T11:12:26.728Z,22.95
2023-04-12T11:13:26.813Z,22.95
2023-04-12T11:14:26.827Z,22.96
2023-04-12T11:15:27.096Z,22.97
2023-04-12T11:16:26.910Z,22.98
2023-04-12T11:17:27.029Z,22.98
2023-04-12T11:18:27.091Z,22.98
2023-04-12T11:19:27.034Z,22.99
2023-04-12T11:20:27.066Z,23.00
2023-04-12T11:21:27.117Z,23.01
2023-04-12T11:22:27.161Z,23.01
2023-04-12T11:23:27.256Z,23.02
2023-04-12T11:24:27.307Z,23.02
2023-04-12T11:25:27.332Z,23.03
2023-04-12T11:26:27.338Z,23.03
2023-04-12T11:27:27.396Z,23.04
2023-04-12T11:28:29.983Z,23.04
2023-04-12T11:29:27.392Z,23.05
2023-04-12T11:30:27.358Z,23.06
2023-04-12T11:31:27.537Z,23.07
2023-04-12T11:32:27.504Z,23.09
2023-04-12T11:33:27.723Z,23.10
2023-04-12T11:34:27.335Z,23.11
2023-04-12T11:35:27.387Z,23.12
2023-04-12T11:36:27.322Z,23.14
2023-04-12T11:37:27.484Z,23.15
2023-04-12T11:38:27.328Z,23.15
2023-04-12T11:39:27.296Z,23.16
2023-04-12T11:40:27.319Z,23.15
2023-04-12T11:41:27.288Z,23.16
2023-04-12T11:42:27.298Z,23.16
2023-04-12T11:43:27.286Z,23.17
2023-04-12T11:44:27.291Z,23.18
2023-04-12T11:45:27.267Z,23.17
2023-04-12T11:46:27.271Z,23.17
2023-04-12T11:47:27.292Z,23.17
2023-04-12T11:48:27.248Z,23.16
2023-04-12T11:49:27.250Z,23.18
2023-04-12T11:50:27.245Z,23.18
2023-04-12T11:51:28.150Z,23.19
2023-04-12T11:52:27.216Z,23.20
2023-04-12T11:53:27.215Z,23.21
2023-04-12T11:54:27.219Z,23.22
2023-04-12T11:55:27.189Z,23.22
2023-04-12T11:56:27.169Z,23.23
2023-04-12T11:57:27.174Z,23.23
2023-04-12T11:58:27.191Z,23.23
2023-04-12T11:59:27.187Z,23.24
2023-04-12T12:00:27.171Z,23.24
2023-04-12T12:01:27.142Z,23.25
2023-04-12T12:02:29.887Z,23.25
2023-04-12T12:03:27.272Z,23.25
2023-04-12T12:04:27.456Z,23.25
2023-04-12T12:05:27.297Z,23.25
2023-04-12T12:06:27.400Z,23.25
2023-04-12T12:07:27.126Z,23.25
2023-04-12T12:08:27.080Z,23.26
2023-04-12T12:09:27.085Z,23.26
2023-04-12T12:10:43.717Z,23.27
2023-04-12T12:11:28.087Z,23.27
2023-04-12T12:12:27.050Z,23.29
2023-04-12T12:13:27.083Z,23.30
2023-04-12T12:14:27.055Z,23.30
2023-04-12T12:15:27.156Z,23.32
2023-04-12T12:16:27.120Z,23.33
2023-04-12T12:17:27.108Z,23.34
2023-04-12T12:18:27.019Z,23.35
2023-04-12T12:19:27.036Z,23.36
2023-04-12T12:20:27.037Z,23.38
2023-04-12T12:21:26.992Z,23.39
2023-04-12T12:22:27.009Z,23.39
2023-04-12T12:23:26.983Z,23.40
2023-04-12T12:24:27.020Z,23.42
2023-04-12T12:25:26.985Z,23.43
2023-04-12T12:26:26.974Z,23.43
2023-04-12T12:27:27.031Z,23.43
2023-04-12T12:28:26.971Z,23.44
2023-04-12T12:29:26.958Z,23.45
2023-04-12T12:30:26.953Z,23.46
2023-04-12T12:31:27.029Z,23.47
2023-04-12T12:32:26.948Z,23.47
2023-04-12T12:33:38.766Z,23.47
2023-04-12T12:34:27.942Z,23.47
2023-04-12T12:35:26.911Z,23.48
2023-04-12T12:36:26.943Z,23.49
2023-04-12T12:37:26.901Z,23.48
2023-04-12T12:38:32.222Z,23.48
2023-04-12T12:39:27.911Z,23.47
2023-04-12T12:40:26.884Z,23.47
2023-04-12T12:41:26.868Z,23.47
2023-04-12T12:42:26.874Z,23.47
2023-04-12T12:43:26.853Z,23.47
2023-04-12T12:44:26.839Z,23.46
2023-04-12T12:45:26.880Z,23.46
2023-04-12T12:46:37.393Z,23.45
2023-04-12T12:47:27.927Z,23.45
2023-04-12T12:48:26.931Z,23.46
2023-04-12T12:49:26.844Z,23.48
2023-04-12T12:50:26.812Z,23.50
2023-04-12T12:51:26.828Z,23.52
2023-04-12T12:52:26.813Z,23.52